createdAt,value
2023-04-10T00:00:48.878Z,7.87
2023-04-10T00:03:18.125Z,7.23
2023-04-10T00:05:46.282Z,7.17
2023-04-10T00:08:13.866Z,7.70
2023-04-10T00:10:41.473Z,10.87
2023-04-10T00:13:09.089Z,7.47
2023-04-10T00:15:36.680Z,8.33
2023-04-10T00:18:05.962Z,8.20
2023-04-10T00:20:33.653Z,8.30
2023-04-10T00:23:01.253Z,8.10
2023-04-10T00:25:29.213Z,10.83
2023-04-10T00:27:56.983Z,9.17
2023-04-10T00:30:24.762Z,10.27
2023-04-10T00:32:52.430Z,9.47
2023-04-10T00:35:21.399Z,7.57
2023-04-10T00:37:50.264Z,8.57
2023-04-10T00:40:17.952Z,8.03
2023-04-10T00:42:45.601Z,8.97
2023-04-10T00:45:13.202Z,10.23
2023-04-10T00:47:40.932Z,10.30
2023-04-10T00:50:09.755Z,12.10
2023-04-10T00:52:39.034Z,8.70
2023-04-10T00:55:07.446Z,10.03
2023-04-10T00:57:35.253Z,8.63
2023-04-10T01:00:04.727Z,9.47
2023-04-10T01:02:33.125Z,8.87
2023-04-10T01:05:00.915Z,9.70
2023-04-10T01:07:39.972Z,9.70
2023-04-10T01:10:16.632Z,8.30
2023-04-10T01:13:05.802Z,9.83
2023-04-10T01:15:40.529Z,8.57
2023-04-10T01:18:17.819Z,9.23
2023-04-10T01:20:45.541Z,7.53
2023-04-10T01:23:51.781Z,8.83
2023-04-10T01:26:33.756Z,9.77
2023-04-10T01:29:06.906Z,11.50
2023-04-10T01:31:38.741Z,8.73
2023-04-10T01:34:09.521Z,11.37
2023-04-10T01:36:41.663Z,7.57
2023-04-10T01:39:10.894Z,9.30
2023-04-10T01:41:42.754Z,7.10
2023-04-10T01:44:16.776Z,7.53
2023-04-10T01:46:45.547Z,8.73
2023-04-10T01:49:15.418Z,6.83
2023-04-10T01:51:45.102Z,7.43
2023-04-10T01:54:14.244Z,6.63
2023-04-10T01:56:42.252Z,7.70
2023-04-10T01:59:10.746Z,6.60
2023-04-10T02:01:39.829Z,6.53
2023-04-10T02:04:07.600Z,6.23
2023-04-10T02:06:46.061Z,7.30
2023-04-10T02:09:19.972Z,5.23
2023-04-10T02:11:52.950Z,5.73
2023-04-10T02:14:23.760Z,6.70
2023-04-10T02:16:56.148Z,5.20
2023-04-10T02:19:26.114Z,5.53
2023-04-10T02:21:54.611Z,5.83
2023-04-10T02:24:22.760Z,5.67
2023-04-10T02:26:52.077Z,6.70
2023-04-10T02:29:20.432Z,6.00
2023-04-10T02:31:48.325Z,5.90
2023-04-10T02:34:17.272Z,5.57
2023-04-10T02:36:44.942Z,6.43
2023-04-10T02:39:13.343Z,6.67
2023-04-10T02:41:48.628Z,7.67
2023-04-10T02:44:16.252Z,7.57
2023-04-10T02:46:44.602Z,8.03
2023-04-10T02:49:13.695Z,10.63
2023-04-10T02:51:42.659Z,9.97
2023-04-10T02:54:10.493Z,8.37
2023-04-10T02:56:39.369Z,10.63
2023-04-10T02:59:06.986Z,10.73
2023-04-10T03:01:35.286Z,9.67
2023-04-10T03:04:03.951Z,8.93
2023-04-10T03:06:36.785Z,9.53
2023-04-10T03:09:05.859Z,9.20
2023-04-10T03:11:34.612Z,8.93
2023-04-10T03:14:02.277Z,8.67
2023-04-10T03:16:29.991Z,9.03
2023-04-10T03:18:58.068Z,10.90
2023-04-10T03:21:25.714Z,11.27
2023-04-10T03:23:53.475Z,9.40
2023-04-10T03:26:24.036Z,7.63
2023-04-10T03:28:52.243Z,8.43
2023-04-10T03:31:20.008Z,10.17
2023-04-10T03:33:48.072Z,8.47
2023-04-10T03:36:16.194Z,8.60
2023-04-10T03:38:43.936Z,7.23
2023-04-10T03:41:11.559Z,8.20
2023-04-10T03:43:40.906Z,7.83
2023-04-10T03:46:09.265Z,9.97
2023-04-10T03:48:42.189Z,7.33
2023-04-10T03:51:11.297Z,8.07
2023-04-10T03:53:38.929Z,8.80
2023-04-10T03:56:11.331Z,7.30
2023-04-10T03:58:40.273Z,7.50
2023-04-10T04:01:08.345Z,8.23
2023-04-10T04:05:49.965Z,10.33
2023-04-10T04:08:32.975Z,8.57
2023-04-10T04:11:20.936Z,12.33
2023-04-10T04:13:56.742Z,12.93
2023-04-10T04:16:33.008Z,13.10
2023-04-10T04:19:16.321Z,13.40
2023-04-10T04:22:06.769Z,13.40
2023-04-10T04:24:52.943Z,11.67
2023-04-10T04:27:33.122Z,13.30
2023-04-10T04:30:09.226Z,18.27
2023-04-10T04:32:54.703Z,14.83
2023-04-10T04:35:42.861Z,13.83
2023-04-10T04:38:22.180Z,11.23
2023-04-10T04:41:01.184Z,11.47
2023-04-10T04:43:55.773Z,11.00
2023-04-10T04:46:28.973Z,12.80
2023-04-10T04:49:31.625Z,11.33
2023-04-10T04:52:27.443Z,11.90
2023-04-10T04:55:09.364Z,11.87
2023-04-10T04:57:54.707Z,10.43
2023-04-10T05:00:42.629Z,11.17
2023-04-10T05:03:26.422Z,11.27
2023-04-10T05:06:31.662Z,12.47
2023-04-10T05:09:12.791Z,11.47
2023-04-10T05:12:03.868Z,14.27
2023-04-10T05:14:54.174Z,15.23
2023-04-10T05:17:33.400Z,14.33
2023-04-10T05:20:22.037Z,15.67
2023-04-10T05:23:05.139Z,19.17
2023-04-10T05:25:52.560Z,19.30
2023-04-10T05:28:40.742Z,20.43
2023-04-10T05:31:44.001Z,17.73
2023-04-10T05:34:17.069Z,18.03
2023-04-10T05:37:10.009Z,18.03
2023-04-10T05:39:47.639Z,15.70
2023-04-10T05:42:33.389Z,17.60
2023-04-10T05:45:19.563Z,18.40
2023-04-10T05:48:10.297Z,18.60
2023-04-10T05:50:56.805Z,17.20
2023-04-10T05:53:35.511Z,16.77
2023-04-10T05:56:35.385Z,15.90
2023-04-10T05:59:21.636Z,17.17
2023-04-10T06:02:09.316Z,17.50
2023-04-10T06:04:37.195Z,18.30
2023-04-10T06:07:06.123Z,20.67
2023-04-10T06:09:33.774Z,18.93
2023-04-10T06:12:01.801Z,19.67
2023-04-10T06:14:29.785Z,19.93
2023-04-10T06:16:58.317Z,17.63
2023-04-10T06:19:27.829Z,17.00
2023-04-10T06:21:55.451Z,18.83
2023-04-10T06:24:23.678Z,17.77
2023-04-10T06:26:51.936Z,20.97
2023-04-10T06:29:19.691Z,21.90
2023-04-10T06:31:47.356Z,24.30
2023-04-10T06:34:14.997Z,20.67
2023-04-10T06:36:54.014Z,20.60
2023-04-10T06:39:21.998Z,20.27
2023-04-10T06:41:49.591Z,20.27
2023-04-10T06:44:29.990Z,20.07
2023-04-10T06:46:57.637Z,20.73
2023-04-10T06:49:25.400Z,21.67
2023-04-10T06:51:54.440Z,24.47
2023-04-10T06:54:22.041Z,23.63
2023-04-10T06:56:49.713Z,21.77
2023-04-10T06:59:17.374Z,22.17
2023-04-10T07:01:57.735Z,22.77
2023-04-10T07:04:25.371Z,22.03
2023-04-10T07:06:53.005Z,23.63
2023-04-10T07:09:21.148Z,21.13
2023-04-10T07:11:50.516Z,22.37
2023-04-10T07:14:18.826Z,23.87
2023-04-10T07:16:46.856Z,23.17
2023-04-10T07:19:16.007Z,22.80
2023-04-10T07:21:44.535Z,23.80
2023-04-10T07:24:13.855Z,21.03
2023-04-10T07:26:41.820Z,22.53
2023-04-10T07:29:09.899Z,22.37
2023-04-10T07:31:37.600Z,23.83
2023-04-10T07:34:06.662Z,23.50
2023-04-10T07:36:35.610Z,21.87
2023-04-10T07:39:03.492Z,22.50
2023-04-10T07:41:32.823Z,23.83
2023-04-10T07:44:00.938Z,23.63
2023-04-10T07:46:28.677Z,24.13
2023-04-10T07:48:56.501Z,25.27
2023-04-10T07:51:24.553Z,23.83
2023-04-10T07:53:53.537Z,24.20
2023-04-10T07:56:21.885Z,24.27
2023-04-10T07:58:50.047Z,24.97
2023-04-10T08:01:17.676Z,24.63
2023-04-10T08:03:47.559Z,24.20
2023-04-10T08:06:15.497Z,23.60
2023-04-10T08:08:43.573Z,23.03
2023-04-10T08:11:26.095Z,23.53
2023-04-10T08:13:54.237Z,21.93
2023-04-10T08:16:25.035Z,23.40
2023-04-10T08:18:53.160Z,23.30
2023-04-10T08:21:22.078Z,24.07
2023-04-10T08:23:51.474Z,21.00
2023-04-10T08:26:19.626Z,23.53
2023-04-10T08:28:50.868Z,23.30
2023-04-10T08:31:18.741Z,21.80
2023-04-10T08:33:46.433Z,21.10
2023-04-10T08:36:17.546Z,20.37
2023-04-10T08:38:47.313Z,22.47
2023-04-10T08:41:16.139Z,21.43
2023-04-10T08:43:45.801Z,20.13
2023-04-10T08:46:15.531Z,20.87
2023-04-10T08:48:48.790Z,22.10
2023-04-10T08:51:26.303Z,22.53
2023-04-10T08:54:02.820Z,20.53
2023-04-10T08:56:33.694Z,19.90
2023-04-10T08:59:02.757Z,20.73
2023-04-10T09:01:32.211Z,20.53
2023-04-10T09:04:01.606Z,20.67
2023-04-10T09:06:30.613Z,19.70
2023-04-10T09:12:03.741Z,19.67
2023-04-10T09:14:34.570Z,20.30
2023-04-10T09:17:19.382Z,19.83
2023-04-10T09:19:48.741Z,19.30
2023-04-10T09:22:17.997Z,18.47
2023-04-10T09:24:47.605Z,17.90
2023-04-10T09:27:33.426Z,16.30
2023-04-10T09:30:01.177Z,18.97
2023-04-10T09:32:41.885Z,18.33
2023-04-10T09:35:12.320Z,16.67
2023-04-10T09:37:42.559Z,17.77
2023-04-10T09:40:24.922Z,17.63
2023-04-10T09:42:54.126Z,16.53
2023-04-10T09:45:22.990Z,18.07
2023-04-10T09:48:09.291Z,16.77
2023-04-10T09:50:40.712Z,18.13
2023-04-10T09:53:12.965Z,17.43
2023-04-10T09:55:41.618Z,16.90
2023-04-10T09:58:11.069Z,17.57
2023-04-10T10:00:41.732Z,17.00
2023-04-10T10:03:14.022Z,17.33
2023-04-10T10:05:43.594Z,17.40
2023-04-10T10:08:16.020Z,16.57
2023-04-10T10:10:49.181Z,14.87
2023-04-10T10:13:20.895Z,15.90
2023-04-10T10:16:00.000Z,14.50
2023-04-10T10:18:38.140Z,16.60
2023-04-10T10:21:07.908Z,15.43
2023-04-10T10:23:37.484Z,14.93
2023-04-10T10:26:08.384Z,14.93
2023-04-10T10:28:37.597Z,14.10
2023-04-10T10:31:05.806Z,13.77
2023-04-10T10:33:38.412Z,13.57
2023-04-10T10:36:10.867Z,14.87
2023-04-10T10:38:46.870Z,15.40
2023-04-10T10:41:25.046Z,14.60
2023-04-10T10:44:04.459Z,15.23
2023-04-10T10:46:43.641Z,15.20
2023-04-10T10:49:15.894Z,13.37
2023-04-10T10:51:53.876Z,14.83
2023-04-10T10:54:44.684Z,15.23
2023-04-10T10:57:50.699Z,15.70
2023-04-10T11:00:24.080Z,14.40
2023-04-10T11:03:28.344Z,13.50
2023-04-10T11:06:01.585Z,14.13
2023-04-10T11:08:44.445Z,14.03
2023-04-10T11:11:16.054Z,13.40
2023-04-10T11:14:17.998Z,13.33
2023-04-10T11:16:48.086Z,12.80
2023-04-10T11:19:19.966Z,14.83
2023-04-10T11:22:09.473Z,12.03
2023-04-10T11:24:57.693Z,12.00
2023-04-10T11:27:49.334Z,11.53
2023-04-10T11:30:44.150Z,11.23
2023-04-10T11:33:20.447Z,11.93
2023-04-10T11:35:48.907Z,11.10
2023-04-10T11:38:19.400Z,12.07
2023-04-10T11:41:02.986Z,13.67
2023-04-10T11:43:31.560Z,12.80
2023-04-10T11:46:09.513Z,12.40
2023-04-10T11:48:37.944Z,13.57
2023-04-10T11:51:10.167Z,12.37
2023-04-10T11:53:39.228Z,12.73
2023-04-10T11:56:08.535Z,12.53
2023-04-10T11:58:37.014Z,14.10
2023-04-10T12:01:06.055Z,12.13
2023-04-10T12:03:35.730Z,13.03
2023-04-10T12:06:04.027Z,10.93
2023-04-10T12:08:32.561Z,12.03
2023-04-10T12:11:02.412Z,10.77
2023-04-10T12:13:30.973Z,11.40
2023-04-10T12:16:03.867Z,11.30
2023-04-10T12:18:32.995Z,10.77
2023-04-10T12:21:01.768Z,9.70
2023-04-10T12:23:32.691Z,10.73
2023-04-10T12:26:14.172Z,10.17
2023-04-10T12:28:43.388Z,8.60
2023-04-10T12:31:12.400Z,9.60
2023-04-10T12:33:40.666Z,9.27
2023-04-10T12:36:25.529Z,9.13
2023-04-10T12:38:54.143Z,8.87
2023-04-10T12:41:30.868Z,9.30
2023-04-10T12:44:11.547Z,9.87
2023-04-10T12:46:39.991Z,8.43
2023-04-10T12:49:14.098Z,8.83
2023-04-10T12:51:43.552Z,9.13
2023-04-10T12:54:12.229Z,9.60
2023-04-10T12:56:47.536Z,8.70
2023-04-10T12:59:15.238Z,9.50
2023-04-10T13:01:44.226Z,9.00
2023-04-10T13:04:13.658Z,9.50
2023-04-10T13:06:45.952Z,9.73
2023-04-10T13:09:13.916Z,9.30
2023-04-10T13:11:45.266Z,9.20
2023-04-10T13:14:14.182Z,8.93
2023-04-10T13:16:41.937Z,8.57
2023-04-10T13:19:10.254Z,7.80
2023-04-10T13:21:38.956Z,9.30
2023-04-10T13:24:07.985Z,10.27
2023-04-10T13:26:38.332Z,9.20
2023-04-10T13:29:07.599Z,9.40
2023-04-10T13:31:35.348Z,9.00
2023-04-10T13:34:04.983Z,9.87
2023-04-10T13:36:34.398Z,9.97
2023-04-10T13:39:03.748Z,8.90
2023-04-10T13:41:31.412Z,8.70
2023-04-10T13:43:59.022Z,8.83
2023-04-10T13:46:28.052Z,10.43
2023-04-10T13:48:56.049Z,7.53
2023-04-10T13:51:23.954Z,7.93
2023-04-10T13:53:52.521Z,7.67
2023-04-10T13:56:20.409Z,8.73
2023-04-10T13:58:48.088Z,7.47
2023-04-10T14:01:15.898Z,8.20
2023-04-10T14:03:45.047Z,7.43
2023-04-10T14:06:14.871Z,8.47
2023-04-10T14:08:42.528Z,7.67
2023-04-10T14:11:10.397Z,7.27
2023-04-10T14:13:38.133Z,7.10
2023-04-10T14:16:07.552Z,7.53
2023-04-10T14:18:40.097Z,7.17
2023-04-10T14:21:10.865Z,6.73
2023-04-10T14:23:38.567Z,6.57
2023-04-10T14:26:07.748Z,6.90
2023-04-10T14:28:35.657Z,6.93
2023-04-10T14:31:08.584Z,7.20
2023-04-10T14:33:36.370Z,6.97
2023-04-10T14:36:04.835Z,7.20
2023-04-10T14:38:34.868Z,7.30
2023-04-10T14:41:03.695Z,8.07
2023-04-10T14:43:31.391Z,6.93
2023-04-10T14:45:59.133Z,6.40
2023-04-10T14:48:26.952Z,6.90
2023-04-10T14:50:55.585Z,6.67
2023-04-10T14:53:23.294Z,6.90
2023-04-10T14:55:52.252Z,7.20
2023-04-10T14:58:19.936Z,7.17
2023-04-10T15:00:48.011Z,6.40
2023-04-10T15:03:16.056Z,7.97
2023-04-10T15:05:43.796Z,7.30
2023-04-10T15:08:11.554Z,6.70
2023-04-10T15:10:39.193Z,7.80
2023-04-10T15:13:08.195Z,7.13
2023-04-10T15:15:35.843Z,7.10
2023-04-10T15:18:03.533Z,7.20
2023-04-10T15:20:31.217Z,7.23
2023-04-10T15:23:00.258Z,8.23
2023-04-10T15:25:27.908Z,7.40
2023-04-10T15:27:56.278Z,6.40
2023-04-10T15:30:25.384Z,7.60
2023-04-10T15:32:53.270Z,7.63
2023-04-10T15:35:21.144Z,7.83
2023-04-10T15:37:48.907Z,7.50
2023-04-10T15:40:16.618Z,8.37
2023-04-10T15:42:44.231Z,7.03
2023-04-10T15:45:11.862Z,7.17
2023-04-10T15:47:41.025Z,6.90
2023-04-10T15:50:10.688Z,7.00
2023-04-10T15:52:38.554Z,6.80
2023-04-10T15:55:07.115Z,6.80
2023-04-10T15:57:34.775Z,6.80
2023-04-10T16:00:04.379Z,7.60
2023-04-10T16:02:33.063Z,7.00
2023-04-10T16:05:02.210Z,8.37
2023-04-10T16:07:31.681Z,6.90
2023-04-10T16:09:59.469Z,8.27
2023-04-10T16:12:27.242Z,6.90
2023-04-10T16:14:54.901Z,7.03
2023-04-10T16:17:22.552Z,7.50
2023-04-10T16:19:50.213Z,6.93
2023-04-10T16:22:19.179Z,7.40
2023-04-10T16:24:46.803Z,7.30
2023-04-10T16:27:14.418Z,7.83
2023-04-10T16:29:42.133Z,7.17
2023-04-10T16:32:09.898Z,7.97
2023-04-10T16:34:37.627Z,8.03
2023-04-10T16:37:05.432Z,11.30
2023-04-10T16:39:34.547Z,12.50
2023-04-10T16:42:03.494Z,10.63
2023-04-10T16:44:31.557Z,7.83
2023-04-10T16:46:59.391Z,7.67
2023-04-10T16:49:27.175Z,7.57
2023-04-10T16:51:54.871Z,8.03
2023-04-10T16:54:23.896Z,6.83
2023-04-10T16:56:53.298Z,7.10
2023-04-10T16:59:20.934Z,7.00
2023-04-10T17:01:48.792Z,7.03
2023-04-10T17:04:18.117Z,6.87
2023-04-10T17:06:45.869Z,7.27
2023-04-10T17:09:13.599Z,7.67
2023-04-10T17:11:41.263Z,6.60
2023-04-10T17:14:13.260Z,7.67
2023-04-10T17:16:41.180Z,6.30
2023-04-10T17:19:08.971Z,7.03
2023-04-10T17:21:36.877Z,6.83
2023-04-10T17:24:05.328Z,6.40
2023-04-10T17:26:34.115Z,6.93
2023-04-10T17:29:01.848Z,6.30
2023-04-10T17:31:32.093Z,6.40
2023-04-10T17:33:59.762Z,5.77
2023-04-10T17:36:28.107Z,8.00
2023-04-10T17:38:56.207Z,6.70
2023-04-10T17:41:24.114Z,8.00
2023-04-10T17:43:51.769Z,6.37
2023-04-10T17:46:19.399Z,6.17
2023-04-10T17:48:48.472Z,6.20
2023-04-10T17:51:16.342Z,6.03
2023-04-10T17:53:43.930Z,6.47
2023-04-10T17:56:19.452Z,5.80
2023-04-10T17:58:47.118Z,7.37
2023-04-10T18:01:22.335Z,10.57
2023-04-10T18:03:51.449Z,10.33
2023-04-10T18:06:19.135Z,9.40
2023-04-10T18:08:46.910Z,9.03
2023-04-10T18:11:14.585Z,8.10
2023-04-10T18:13:42.315Z,7.80
2023-04-10T18:16:11.808Z,8.20
2023-04-10T18:18:41.731Z,7.70
2023-04-10T18:21:11.239Z,7.97
2023-04-10T18:23:39.501Z,7.37
2023-04-10T18:26:07.612Z,6.70
2023-04-10T18:28:35.915Z,6.17
2023-04-10T18:31:03.693Z,5.93
2023-04-10T18:33:31.369Z,5.67
2023-04-10T18:35:59.423Z,5.87
2023-04-10T18:38:28.553Z,5.30
2023-04-10T18:40:57.219Z,5.50
2023-04-10T18:43:27.382Z,5.50
2023-04-10T18:45:55.745Z,4.80
2023-04-10T18:48:23.386Z,4.97
2023-04-10T18:50:52.986Z,5.03
2023-04-10T18:53:20.707Z,5.37
2023-04-10T18:55:53.854Z,4.80
2023-04-10T18:58:22.534Z,5.73
2023-04-10T19:00:50.422Z,5.73
2023-04-10T19:03:18.155Z,6.27
2023-04-10T19:05:45.955Z,5.63
2023-04-10T19:08:14.483Z,6.10
2023-04-10T19:10:43.102Z,7.07
2023-04-10T19:13:12.960Z,5.83
2023-04-10T19:15:42.529Z,6.73
2023-04-10T19:18:11.674Z,6.77
2023-04-10T19:20:50.376Z,6.97
2023-04-10T19:23:20.437Z,5.57
2023-04-10T19:25:51.866Z,6.10
2023-04-10T19:28:21.173Z,7.33
2023-04-10T19:30:48.827Z,5.93
2023-04-10T19:33:17.038Z,5.80
2023-04-10T19:35:44.804Z,5.97
2023-04-10T19:38:12.497Z,5.83
2023-04-10T19:40:40.176Z,5.53
2023-04-10T19:43:07.749Z,5.50
2023-04-10T19:45:38.776Z,5.67
2023-04-10T19:48:07.940Z,5.50
2023-04-10T19:50:35.693Z,5.33
2023-04-10T19:53:03.290Z,5.50
2023-04-10T19:55:31.612Z,5.60
2023-04-10T19:57:59.196Z,5.40
2023-04-10T20:00:26.842Z,7.23
2023-04-10T20:02:56.049Z,6.63
2023-04-10T20:05:23.845Z,7.93
2023-04-10T20:07:51.466Z,6.57
2023-04-10T20:10:19.075Z,5.70
2023-04-10T20:12:46.676Z,5.37
2023-04-10T20:15:14.281Z,5.43
2023-04-10T20:17:41.881Z,5.67
2023-04-10T20:20:12.725Z,5.93
2023-04-10T20:22:40.403Z,6.10
2023-04-10T20:25:09.004Z,6.00
2023-04-10T20:27:36.588Z,6.27
2023-04-10T20:30:05.054Z,5.83
2023-04-10T20:32:32.700Z,5.43
2023-04-10T20:35:00.318Z,7.07
2023-04-10T20:37:29.260Z,6.07
2023-04-10T20:39:56.857Z,5.33
2023-04-10T20:42:24.425Z,5.67
2023-04-10T20:44:52.014Z,6.53
2023-04-10T20:47:19.590Z,5.80
2023-04-10T20:49:47.207Z,5.77
2023-04-10T20:52:14.861Z,6.73
2023-04-10T20:54:43.826Z,5.83
2023-04-10T20:57:11.429Z,5.00
2023-04-10T20:59:39.135Z,5.50
2023-04-10T21:02:06.773Z,5.87
2023-04-10T21:04:34.470Z,5.93
2023-04-10T21:07:02.094Z,6.07
2023-04-10T21:09:29.872Z,5.57
2023-04-10T21:11:58.781Z,5.80
2023-04-10T21:14:26.385Z,7.03
2023-04-10T21:16:54.157Z,8.07
2023-04-10T21:19:21.874Z,6.60
2023-04-10T21:21:49.433Z,7.30
2023-04-10T21:24:17.045Z,6.73
2023-04-10T21:26:44.622Z,7.30
2023-04-10T21:29:13.807Z,6.83
2023-04-10T21:31:41.467Z,7.00
2023-04-10T21:34:09.213Z,6.40
2023-04-10T21:36:36.815Z,6.17
2023-04-10T21:39:08.886Z,5.90
2023-04-10T21:41:36.647Z,7.10
2023-04-10T21:44:04.288Z,7.63
2023-04-10T21:46:34.718Z,7.33
2023-04-10T21:49:03.074Z,5.90
2023-04-10T21:51:31.072Z,6.70
2023-04-10T21:53:58.707Z,7.27
2023-04-10T21:56:26.424Z,6.50
2023-04-10T21:58:54.534Z,6.33
2023-04-10T22:01:22.724Z,5.63
2023-04-10T22:03:51.917Z,7.30
2023-04-10T22:06:19.599Z,7.57
2023-04-10T22:08:47.210Z,7.20
2023-04-10T22:11:15.063Z,6.47
2023-04-10T22:13:42.739Z,5.90
2023-04-10T22:16:10.400Z,6.13
2023-04-10T22:18:38.086Z,5.83
2023-04-10T22:21:07.576Z,5.93
2023-04-10T22:23:35.282Z,5.63
2023-04-10T22:26:02.973Z,5.80
2023-04-10T22:28:30.612Z,5.90
2023-04-10T22:30:58.258Z,6.00
2023-04-10T22:33:25.903Z,5.70
2023-04-10T22:35:53.730Z,6.17
2023-04-10T22:38:22.749Z,6.33
2023-04-10T22:40:50.333Z,5.53
2023-04-10T22:43:17.927Z,5.60
2023-04-10T22:45:45.663Z,5.93
2023-04-10T22:48:13.276Z,6.00
2023-04-10T22:50:40.995Z,5.30
2023-04-10T22:53:09.868Z,6.50
2023-04-10T22:55:39.562Z,5.83
2023-04-10T22:58:07.508Z,5.83
2023-04-10T23:00:35.202Z,5.60
2023-04-10T23:03:03.180Z,5.80
2023-04-10T23:05:32.943Z,6.03
2023-04-10T23:08:00.599Z,6.40
2023-04-10T23:10:28.190Z,5.87
2023-04-10T23:12:57.111Z,5.47
2023-04-10T23:15:24.752Z,5.60
2023-04-10T23:17:52.456Z,6.23
2023-04-10T23:20:20.239Z,5.37
2023-04-10T23:22:47.948Z,5.53
2023-04-10T23:25:16.250Z,5.53
2023-04-10T23:27:43.895Z,6.90
2023-04-10T23:30:13.203Z,5.80
2023-04-10T23:32:40.855Z,5.70
2023-04-10T23:35:09.023Z,5.03
2023-04-10T23:37:36.636Z,7.83
2023-04-10T23:40:04.399Z,5.60
2023-04-10T23:42:31.997Z,5.77
2023-04-10T23:44:59.625Z,5.20
2023-04-10T23:47:28.673Z,6.30
2023-04-10T23:49:56.300Z,5.27
2023-04-10T23:52:23.909Z,5.77
2023-04-10T23:54:51.477Z,5.77
2023-04-10T23:57:19.160Z,5.57
2023-04-10T23:59:46.968Z,5.37
